createdAt,value
2022-09-28T00:02:13.017Z,8.70
2022-09-28T00:04:39.623Z,8.80
2022-09-28T00:07:06.188Z,8.80
2022-09-28T00:09:32.740Z,8.80
2022-09-28T00:11:59.320Z,8.80
2022-09-28T00:14:25.913Z,8.80
2022-09-28T00:16:52.539Z,8.90
2022-09-28T00:19:19.299Z,8.80
2022-09-28T00:21:45.883Z,8.80
2022-09-28T00:24:14.350Z,8.90
2022-09-28T00:26:49.586Z,8.90
2022-09-28T00:29:28.545Z,8.90
2022-09-28T00:31:57.669Z,9.00
2022-09-28T00:34:24.290Z,8.90
2022-09-28T00:36:50.866Z,8.90
2022-09-28T00:39:18.111Z,8.90
2022-09-28T00:41:46.305Z,8.90
2022-09-28T00:44:42.000Z,9.00
2022-09-28T00:47:26.291Z,9.00
2022-09-28T00:50:07.040Z,9.00
2022-09-28T00:52:45.394Z,9.00
2022-09-28T00:55:20.436Z,9.00
2022-09-28T00:57:51.715Z,9.00
2022-09-28T01:00:18.603Z,9.00
2022-09-28T01:02:46.581Z,9.00
2022-09-28T01:05:13.984Z,9.00
2022-09-28T01:07:43.508Z,9.00
2022-09-28T01:10:10.440Z,8.90
2022-09-28T01:12:37.018Z,9.00
2022-09-28T01:15:04.785Z,9.00
2022-09-28T01:18:21.953Z,9.00
2022-09-28T01:21:00.170Z,9.00
2022-09-28T01:23:54.449Z,9.00
2022-09-28T01:26:23.849Z,9.00
2022-09-28T01:28:59.023Z,9.00
2022-09-28T01:31:30.159Z,9.00
2022-09-28T01:34:14.589Z,9.00
2022-09-28T01:36:47.153Z,9.00
2022-09-28T01:39:22.306Z,9.00
2022-09-28T01:41:51.697Z,9.00
2022-09-28T01:44:21.037Z,9.00
2022-09-28T01:46:50.426Z,9.00
2022-09-28T01:49:28.169Z,9.00
2022-09-28T01:52:17.709Z,9.00
2022-09-28T01:54:50.520Z,9.00
2022-09-28T01:57:25.710Z,9.00
2022-09-28T02:00:06.301Z,9.00
2022-09-28T02:02:56.188Z,9.00
2022-09-28T02:05:39.544Z,9.00
2022-09-28T02:08:30.413Z,9.00
2022-09-28T02:11:18.221Z,9.00
2022-09-28T02:13:56.789Z,9.00
2022-09-28T02:16:43.911Z,9.00
2022-09-28T02:19:22.259Z,9.00
2022-09-28T02:22:07.758Z,9.00
2022-09-28T02:24:40.297Z,8.90
2022-09-28T02:27:17.362Z,8.90
2022-09-28T02:29:44.028Z,8.90
2022-09-28T02:32:11.116Z,8.90
2022-09-28T02:34:37.804Z,8.90
2022-09-28T02:37:04.468Z,8.90
2022-09-28T02:39:31.071Z,8.90
2022-09-28T02:42:19.818Z,8.80
2022-09-28T02:44:56.628Z,8.80
2022-09-28T02:47:47.241Z,8.80
2022-09-28T02:50:47.922Z,8.80
2022-09-28T02:53:29.782Z,8.70
2022-09-28T02:56:08.699Z,8.80
2022-09-28T02:58:56.967Z,8.70
2022-09-28T03:01:29.864Z,8.70
2022-09-28T03:04:01.056Z,8.80
2022-09-28T03:06:36.969Z,8.70
2022-09-28T03:09:07.569Z,8.70
2022-09-28T03:11:38.853Z,8.70
2022-09-28T03:14:06.011Z,8.70
2022-09-28T03:16:32.662Z,8.60
2022-09-28T03:18:59.307Z,8.70
2022-09-28T03:21:25.896Z,8.70
2022-09-28T03:23:52.624Z,8.70
2022-09-28T03:26:19.229Z,8.70
2022-09-28T03:28:45.829Z,8.70
2022-09-28T03:31:12.509Z,8.80
2022-09-28T03:33:39.134Z,8.80
2022-09-28T03:36:05.893Z,8.80
2022-09-28T03:38:32.523Z,8.80
2022-09-28T03:41:00.385Z,8.80
2022-09-28T03:43:27.956Z,8.80
2022-09-28T03:45:56.544Z,8.80
2022-09-28T03:48:28.716Z,8.80
2022-09-28T03:50:59.709Z,8.80
2022-09-28T03:53:26.439Z,8.80
2022-09-28T03:55:53.473Z,8.90
2022-09-28T03:58:21.310Z,8.80
2022-09-28T04:00:48.883Z,8.90
2022-09-28T04:03:15.939Z,8.90
2022-09-28T04:05:50.166Z,8.90
2022-09-28T04:08:17.029Z,8.90
2022-09-28T04:10:43.613Z,8.90
2022-09-28T04:13:10.231Z,9.00
2022-09-28T04:15:36.812Z,9.00
2022-09-28T04:18:03.914Z,9.00
2022-09-28T04:20:30.484Z,9.00
2022-09-28T04:22:58.160Z,9.00
2022-09-28T04:25:24.778Z,9.00
2022-09-28T04:27:51.377Z,9.00
2022-09-28T04:30:17.959Z,9.00
2022-09-28T04:32:46.887Z,9.00
2022-09-28T04:35:14.253Z,9.00
2022-09-28T04:37:41.186Z,9.00
2022-09-28T04:40:08.340Z,9.00
2022-09-28T04:42:36.489Z,9.00
2022-09-28T04:45:03.166Z,9.10
2022-09-28T04:47:29.891Z,9.10
2022-09-28T04:49:56.635Z,9.10
2022-09-28T04:52:23.228Z,9.10
2022-09-28T04:54:49.810Z,9.10
2022-09-28T04:57:16.387Z,9.10
2022-09-28T04:59:42.958Z,9.10
2022-09-28T05:02:09.660Z,9.10
2022-09-28T05:04:36.282Z,9.10
2022-09-28T05:07:02.874Z,9.10
2022-09-28T05:09:29.458Z,9.20
2022-09-28T05:11:56.038Z,9.20
2022-09-28T05:14:22.620Z,9.20
2022-09-28T05:16:49.813Z,9.20
2022-09-28T05:19:16.566Z,9.10
2022-09-28T05:21:44.915Z,9.20
2022-09-28T05:24:11.976Z,9.20
2022-09-28T05:26:38.834Z,9.20
2022-09-28T05:29:05.717Z,9.20
2022-09-28T05:31:32.376Z,9.20
2022-09-28T05:33:58.991Z,9.20
2022-09-28T05:36:25.578Z,9.10
2022-09-28T05:38:52.209Z,9.20
2022-09-28T05:41:18.782Z,9.20
2022-09-28T05:43:45.357Z,9.20
2022-09-28T05:46:11.987Z,9.20
2022-09-28T05:48:38.570Z,9.20
2022-09-28T05:51:05.309Z,9.30
2022-09-28T05:53:31.891Z,9.30
2022-09-28T05:55:59.498Z,9.30
2022-09-28T05:58:26.113Z,9.30
2022-09-28T06:00:56.355Z,9.20
2022-09-28T06:03:23.324Z,9.30
2022-09-28T06:05:50.229Z,9.20
2022-09-28T06:08:17.001Z,9.20
2022-09-28T06:10:43.599Z,9.20
2022-09-28T06:13:11.088Z,9.20
2022-09-28T06:15:38.241Z,9.10
2022-09-28T06:18:10.493Z,9.20
2022-09-28T06:20:38.955Z,9.20
2022-09-28T06:23:05.539Z,9.20
2022-09-28T06:25:32.250Z,9.20
2022-09-28T06:28:04.287Z,9.20
2022-09-28T06:30:33.118Z,9.20
2022-09-28T06:33:01.291Z,9.20
2022-09-28T06:35:29.811Z,9.30
2022-09-28T06:37:57.056Z,9.20
2022-09-28T06:40:24.151Z,9.30
2022-09-28T06:43:09.316Z,9.30
2022-09-28T06:45:37.442Z,9.30
2022-09-28T06:48:04.878Z,9.30
2022-09-28T06:50:34.861Z,9.40
2022-09-28T06:53:02.018Z,9.50
2022-09-28T06:55:29.175Z,9.50
2022-09-28T06:58:07.257Z,9.50
2022-09-28T07:00:35.763Z,9.50
2022-09-28T07:03:03.428Z,9.40
2022-09-28T07:05:31.735Z,9.40
2022-09-28T07:07:58.372Z,9.30
2022-09-28T07:10:27.014Z,9.30
2022-09-28T07:12:54.568Z,9.30
2022-09-28T07:15:21.755Z,9.30
2022-09-28T07:18:00.487Z,9.40
2022-09-28T07:20:30.261Z,9.40
2022-09-28T07:23:06.194Z,9.50
2022-09-28T07:25:40.306Z,9.50
2022-09-28T07:28:07.002Z,9.50
2022-09-28T07:30:35.300Z,9.60
2022-09-28T07:33:03.113Z,9.50
2022-09-28T07:35:29.932Z,9.50
2022-09-28T07:38:01.229Z,9.50
2022-09-28T07:40:28.433Z,9.50
2022-09-28T07:42:55.368Z,9.50
2022-09-28T07:45:22.052Z,9.50
2022-09-28T07:47:48.615Z,9.50
2022-09-28T07:50:15.247Z,9.50
2022-09-28T07:52:41.809Z,9.40
2022-09-28T07:55:08.718Z,9.50
2022-09-28T07:57:35.267Z,9.50
2022-09-28T08:00:02.063Z,9.40
2022-09-28T08:02:28.706Z,9.50
2022-09-28T08:04:55.360Z,9.50
2022-09-28T08:07:24.121Z,9.60
2022-09-28T08:09:50.966Z,9.50
2022-09-28T08:12:17.542Z,9.20
2022-09-28T08:14:44.102Z,9.20
2022-09-28T08:17:10.695Z,9.10
2022-09-28T08:19:37.492Z,9.00
2022-09-28T08:22:04.073Z,9.00
2022-09-28T08:24:31.196Z,8.90
2022-09-28T08:26:57.779Z,8.90
2022-09-28T08:29:24.342Z,9.00
2022-09-28T08:31:51.047Z,9.00
2022-09-28T08:34:17.782Z,9.00
2022-09-28T08:36:44.432Z,9.00
2022-09-28T08:39:10.997Z,9.10
2022-09-28T08:41:50.339Z,9.10
2022-09-28T08:44:18.777Z,9.00
2022-09-28T08:46:48.511Z,9.00
2022-09-28T08:49:35.409Z,8.90
2022-09-28T08:52:05.115Z,8.90
2022-09-28T08:54:37.551Z,8.90
2022-09-28T08:57:11.046Z,9.00
2022-09-28T08:59:43.864Z,9.10
2022-09-28T09:02:18.770Z,9.00
2022-09-28T09:04:45.619Z,9.10
2022-09-28T09:07:56.731Z,9.20
2022-09-28T09:10:38.611Z,9.20
2022-09-28T09:13:25.099Z,9.30
2022-09-28T09:15:56.097Z,9.40
2022-09-28T09:18:47.145Z,9.30
2022-09-28T09:21:40.623Z,9.30
2022-09-28T09:24:33.483Z,9.40
2022-09-28T09:27:06.670Z,9.40
2022-09-28T09:30:02.379Z,9.50
2022-09-28T09:32:28.914Z,9.50
2022-09-28T09:35:31.059Z,9.40
2022-09-28T09:38:09.198Z,9.40
2022-09-28T09:40:52.782Z,9.60
2022-09-28T09:43:40.095Z,9.70
2022-09-28T09:46:12.399Z,9.80
2022-09-28T09:49:07.662Z,9.70
2022-09-28T09:51:42.916Z,9.80
2022-09-28T09:54:21.231Z,9.80
2022-09-28T09:57:03.106Z,9.70
2022-09-28T09:59:34.510Z,9.80
2022-09-28T10:02:03.649Z,9.80
2022-09-28T10:04:37.454Z,9.90
2022-09-28T10:07:06.432Z,9.90
2022-09-28T10:09:39.378Z,9.90
2022-09-28T10:12:09.229Z,9.90
2022-09-28T10:14:35.862Z,9.90
2022-09-28T10:17:03.918Z,9.90
2022-09-28T10:19:35.285Z,10.00
2022-09-28T10:22:05.704Z,10.00
2022-09-28T10:24:54.200Z,10.00
2022-09-28T10:27:31.335Z,10.10
2022-09-28T10:30:08.076Z,10.20
2022-09-28T10:32:39.759Z,10.20
2022-09-28T10:35:18.299Z,10.10
2022-09-28T10:38:01.519Z,10.10
2022-09-28T10:40:34.614Z,10.00
2022-09-28T10:43:16.661Z,10.00
2022-09-28T10:45:43.470Z,10.10
2022-09-28T10:48:20.348Z,10.10
2022-09-28T10:51:06.879Z,10.10
2022-09-28T10:53:35.271Z,10.10
2022-09-28T10:56:05.176Z,10.10
2022-09-28T10:58:38.533Z,10.10
2022-09-28T11:01:27.506Z,10.10
2022-09-28T11:03:58.306Z,10.00
2022-09-28T11:06:26.524Z,10.10
2022-09-28T11:08:54.708Z,10.10
2022-09-28T11:11:21.734Z,10.10
2022-09-28T11:13:52.319Z,10.10
2022-09-28T11:16:27.552Z,10.10
2022-09-28T11:18:55.447Z,10.10
2022-09-28T11:21:23.723Z,10.10
2022-09-28T11:24:01.086Z,10.00
2022-09-28T11:26:35.710Z,10.10
2022-09-28T11:29:02.308Z,10.10
2022-09-28T11:31:30.090Z,10.20
2022-09-28T11:34:14.683Z,10.10
2022-09-28T11:36:50.263Z,10.10
2022-09-28T11:39:31.642Z,10.20
2022-09-28T11:42:16.492Z,10.20
2022-09-28T11:44:52.392Z,10.20
2022-09-28T11:47:27.605Z,10.20
2022-09-28T11:50:03.040Z,10.20
2022-09-28T11:52:41.363Z,10.30
2022-09-28T11:55:32.333Z,10.10
2022-09-28T11:58:24.172Z,10.20
2022-09-28T12:01:08.260Z,10.20
2022-09-28T12:03:42.300Z,10.20
2022-09-28T12:06:37.379Z,10.20
2022-09-28T12:09:14.385Z,10.20
2022-09-28T12:11:45.095Z,10.20
2022-09-28T12:14:29.123Z,10.10
2022-09-28T12:17:10.660Z,10.10
2022-09-28T12:19:48.627Z,10.10
2022-09-28T12:22:36.925Z,10.00
2022-09-28T12:25:06.811Z,10.00
2022-09-28T12:27:56.020Z,10.00
2022-09-28T12:30:24.237Z,9.90
2022-09-28T12:33:07.738Z,9.90
2022-09-28T12:35:43.333Z,10.00
2022-09-28T12:38:25.126Z,9.90
2022-09-28T12:41:10.470Z,10.00
2022-09-28T12:43:39.908Z,10.00
2022-09-28T12:46:24.406Z,10.00
2022-09-28T12:52:17.763Z,10.10
2022-09-28T12:54:59.470Z,10.10
2022-09-28T12:57:43.913Z,10.00
2022-09-28T13:00:19.476Z,10.00
2022-09-28T13:03:10.045Z,10.00
2022-09-28T13:06:05.830Z,10.00
2022-09-28T13:08:50.799Z,10.00
2022-09-28T13:11:33.729Z,10.00
2022-09-28T13:14:31.799Z,10.00
2022-09-28T13:17:06.854Z,9.90
2022-09-28T13:19:36.221Z,10.00
2022-09-28T13:22:21.487Z,9.90
2022-09-28T13:24:49.552Z,9.90
2022-09-28T13:27:24.526Z,9.90
2022-09-28T13:29:51.915Z,9.80
2022-09-28T13:32:19.222Z,9.80
2022-09-28T13:34:49.963Z,9.80
2022-09-28T13:37:16.510Z,9.90
2022-09-28T13:39:45.849Z,10.00
2022-09-28T13:42:28.115Z,10.00
2022-09-28T13:45:27.619Z,10.00
2022-09-28T13:48:14.680Z,10.00
2022-09-28T13:50:59.841Z,10.00
2022-09-28T13:53:51.978Z,10.00
2022-09-28T13:56:23.032Z,10.00
2022-09-28T13:59:18.711Z,9.90
2022-09-28T14:01:55.987Z,10.00
2022-09-28T14:04:25.546Z,9.90
2022-09-28T14:07:16.184Z,10.00
2022-09-28T14:10:20.770Z,10.00
2022-09-28T14:12:54.353Z,10.00
2022-09-28T14:15:41.665Z,10.00
2022-09-28T14:18:17.259Z,10.00
2022-09-28T14:20:59.655Z,9.90
2022-09-28T14:23:41.530Z,9.90
2022-09-28T14:26:35.507Z,9.80
2022-09-28T14:29:22.842Z,9.80
2022-09-28T14:31:49.496Z,9.80
2022-09-28T14:34:32.679Z,9.80
2022-09-28T14:37:00.405Z,9.80
2022-09-28T14:39:31.375Z,9.80
2022-09-28T14:42:08.899Z,9.80
2022-09-28T14:45:06.665Z,9.80
2022-09-28T14:47:42.019Z,9.80
2022-09-28T14:50:26.115Z,9.80
2022-09-28T14:53:03.392Z,9.80
2022-09-28T14:55:38.622Z,9.80
2022-09-28T14:58:12.754Z,9.80
2022-09-28T15:00:43.951Z,9.80
2022-09-28T15:03:12.456Z,9.80
2022-09-28T15:05:43.998Z,9.80
2022-09-28T15:08:11.639Z,9.70
2022-09-28T15:10:44.385Z,9.70
2022-09-28T15:13:24.742Z,9.70
2022-09-28T15:16:02.894Z,9.60
2022-09-28T15:18:42.816Z,9.60
2022-09-28T15:21:11.763Z,9.60
2022-09-28T15:23:40.451Z,9.60
2022-09-28T15:26:20.919Z,9.60
2022-09-28T15:28:47.503Z,9.50
2022-09-28T15:31:23.779Z,9.50
2022-09-28T15:33:50.402Z,9.50
2022-09-28T15:36:21.132Z,9.60
2022-09-28T15:39:04.029Z,9.50
2022-09-28T15:41:30.824Z,9.50
2022-09-28T15:44:12.460Z,9.50
2022-09-28T15:46:44.805Z,9.50
2022-09-28T15:49:38.951Z,9.50
2022-09-28T15:52:06.196Z,9.50
2022-09-28T15:54:43.782Z,9.50
2022-09-28T15:57:33.346Z,9.50
2022-09-28T16:00:00.511Z,9.40
2022-09-28T16:02:27.812Z,9.40
2022-09-28T16:05:01.622Z,9.40
2022-09-28T16:07:33.819Z,9.30
2022-09-28T16:10:12.599Z,9.30
2022-09-28T16:12:44.341Z,9.30
2022-09-28T16:15:10.883Z,9.30
2022-09-28T16:17:37.569Z,9.30
2022-09-28T16:20:23.000Z,9.30
2022-09-28T16:22:50.422Z,9.40
2022-09-28T16:25:23.679Z,9.30
2022-09-28T16:27:52.402Z,9.30
2022-09-28T16:30:25.388Z,9.20
2022-09-28T16:33:03.778Z,9.20
2022-09-28T16:35:50.438Z,9.30
2022-09-28T16:38:18.647Z,9.20
2022-09-28T16:40:48.224Z,9.20
2022-09-28T16:43:22.312Z,9.10
2022-09-28T16:45:48.918Z,9.10
2022-09-28T16:48:16.228Z,9.10
2022-09-28T16:50:42.802Z,9.10
2022-09-28T16:53:14.608Z,9.00
2022-09-28T16:55:41.525Z,9.00
2022-09-28T16:58:08.465Z,9.00
2022-09-28T17:00:35.126Z,9.00
2022-09-28T17:03:01.844Z,9.10
2022-09-28T17:05:28.466Z,9.10
2022-09-28T17:08:01.537Z,9.00
2022-09-28T17:10:56.033Z,9.00
2022-09-28T17:13:28.651Z,9.00
2022-09-28T17:15:55.258Z,9.00
2022-09-28T17:18:21.826Z,8.90
2022-09-28T17:20:50.808Z,8.90
2022-09-28T17:25:49.779Z,8.80
2022-09-28T17:28:25.917Z,8.70
2022-09-28T17:31:10.136Z,8.70
2022-09-28T17:33:36.808Z,8.70
2022-09-28T17:36:03.957Z,8.70
2022-09-28T17:38:30.668Z,8.70
2022-09-28T17:40:57.312Z,8.70
2022-09-28T17:43:24.020Z,8.70
2022-09-28T17:45:50.775Z,8.70
2022-09-28T17:48:20.035Z,8.80
2022-09-28T17:50:46.798Z,8.80
2022-09-28T17:53:14.339Z,8.80
2022-09-28T17:55:42.069Z,8.80
2022-09-28T17:58:14.876Z,8.80
2022-09-28T18:00:41.509Z,8.90
2022-09-28T18:03:19.547Z,8.90
2022-09-28T18:05:49.957Z,8.90
2022-09-28T18:08:21.185Z,8.80
2022-09-28T18:10:47.779Z,8.80
2022-09-28T18:13:14.598Z,8.70
2022-09-28T18:15:41.525Z,8.70
2022-09-28T18:18:08.668Z,8.70
2022-09-28T18:20:36.495Z,8.70
2022-09-28T18:23:03.659Z,8.70
2022-09-28T18:25:30.576Z,8.70
2022-09-28T18:27:57.378Z,8.70
2022-09-28T18:30:24.564Z,8.60
2022-09-28T18:32:51.159Z,8.60
2022-09-28T18:35:22.630Z,8.70
2022-09-28T18:37:50.083Z,8.60
2022-09-28T18:40:17.110Z,8.60
2022-09-28T18:42:43.789Z,8.60
2022-09-28T18:45:11.289Z,8.60
2022-09-28T18:47:39.471Z,8.70
2022-09-28T18:50:06.658Z,8.70
2022-09-28T18:52:36.635Z,8.70
2022-09-28T18:55:04.135Z,8.60
2022-09-28T18:57:30.809Z,8.70
2022-09-28T18:59:57.412Z,8.70
2022-09-28T19:02:24.080Z,8.70
2022-09-28T19:04:50.763Z,8.70
2022-09-28T19:07:17.350Z,8.70
2022-09-28T19:09:44.078Z,8.70
2022-09-28T19:12:14.568Z,8.60
2022-09-28T19:14:41.167Z,8.70
2022-09-28T19:17:07.746Z,8.60
2022-09-28T19:19:34.343Z,8.60
2022-09-28T19:22:01.226Z,8.60
2022-09-28T19:24:27.860Z,8.70
2022-09-28T19:26:54.475Z,8.70
2022-09-28T19:29:21.380Z,8.70
2022-09-28T19:31:49.496Z,8.70
2022-09-28T19:34:16.248Z,8.80
2022-09-28T19:36:42.894Z,8.70
2022-09-28T19:39:14.627Z,8.70
2022-09-28T19:41:44.147Z,8.70
2022-09-28T19:44:12.927Z,8.70
2022-09-28T19:46:40.207Z,8.70
2022-09-28T19:49:15.421Z,8.70
2022-09-28T19:51:56.547Z,8.70
2022-09-28T19:54:30.195Z,8.70
2022-09-28T19:57:00.149Z,8.70
2022-09-28T19:59:27.874Z,8.70
2022-09-28T20:01:54.618Z,8.70
2022-09-28T20:04:21.786Z,8.60
2022-09-28T20:06:48.514Z,8.60
2022-09-28T20:09:15.246Z,8.60
2022-09-28T20:11:41.836Z,8.60
2022-09-28T20:14:09.799Z,8.60
2022-09-28T20:16:37.207Z,8.60
2022-09-28T20:19:04.278Z,8.60
2022-09-28T20:21:31.103Z,8.60
2022-09-28T20:23:57.755Z,8.60
2022-09-28T20:26:25.636Z,8.60
2022-09-28T20:28:52.911Z,8.60
2022-09-28T20:31:24.862Z,8.60
2022-09-28T20:33:52.087Z,8.60
2022-09-28T20:36:21.830Z,8.60
2022-09-28T20:38:50.463Z,8.60
2022-09-28T20:41:19.856Z,8.60
2022-09-28T20:43:47.311Z,8.50
2022-09-28T20:46:14.320Z,8.50
2022-09-28T20:48:41.094Z,8.50
2022-09-28T20:51:12.823Z,8.50
2022-09-28T20:53:40.929Z,8.50
2022-09-28T20:56:33.233Z,8.40
2022-09-28T20:58:59.939Z,8.40
2022-09-28T21:01:29.879Z,8.40
2022-09-28T21:03:57.988Z,8.50
2022-09-28T21:06:30.403Z,8.40
2022-09-28T21:08:57.658Z,8.40
2022-09-28T21:11:26.833Z,8.40
2022-09-28T21:13:59.096Z,8.40
2022-09-28T21:16:27.194Z,8.30
2022-09-28T21:18:54.155Z,8.40
2022-09-28T21:21:21.915Z,8.40
2022-09-28T21:23:51.601Z,8.40
2022-09-28T21:26:20.912Z,8.40
2022-09-28T21:28:47.555Z,8.40
2022-09-28T21:31:14.453Z,8.40
2022-09-28T21:33:41.050Z,8.40
2022-09-28T21:36:08.361Z,8.40
2022-09-28T21:38:35.157Z,8.30
2022-09-28T21:41:02.225Z,8.30
2022-09-28T21:43:30.271Z,8.30
2022-09-28T21:45:57.249Z,8.30
2022-09-28T21:48:26.661Z,8.30
2022-09-28T21:51:07.490Z,8.30
2022-09-28T21:53:36.201Z,8.30
2022-09-28T21:56:04.261Z,8.30
2022-09-28T21:58:32.760Z,8.30
2022-09-28T22:01:05.056Z,8.30
2022-09-28T22:03:33.540Z,8.30
2022-09-28T22:06:00.294Z,8.30
2022-09-28T22:08:26.958Z,8.30
2022-09-28T22:11:01.223Z,8.30
2022-09-28T22:13:29.374Z,8.40
2022-09-28T22:15:56.919Z,8.40
2022-09-28T22:18:23.714Z,8.40
2022-09-28T22:20:58.826Z,8.40
2022-09-28T22:23:25.418Z,8.40
2022-09-28T22:25:58.043Z,8.40
2022-09-28T22:28:24.667Z,8.50
2022-09-28T22:30:51.296Z,8.50
2022-09-28T22:33:17.923Z,8.50
2022-09-28T22:35:44.549Z,8.40
2022-09-28T22:38:11.152Z,8.40
2022-09-28T22:40:42.477Z,8.50
2022-09-28T22:43:09.081Z,8.50
2022-09-28T22:45:35.655Z,8.50
2022-09-28T22:48:02.341Z,8.50
2022-09-28T22:50:28.929Z,8.50
2022-09-28T22:52:55.505Z,8.50
2022-09-28T22:55:22.292Z,8.50
2022-09-28T22:57:48.878Z,8.50
2022-09-28T23:00:15.699Z,8.50
2022-09-28T23:02:42.327Z,8.50
2022-09-28T23:05:08.969Z,8.50
2022-09-28T23:07:35.529Z,8.50
2022-09-28T23:10:02.099Z,8.50
2022-09-28T23:12:28.655Z,8.50
2022-09-28T23:14:55.222Z,8.50
2022-09-28T23:17:21.858Z,8.50
2022-09-28T23:19:48.419Z,8.50
2022-09-28T23:22:15.016Z,8.60
2022-09-28T23:24:41.609Z,8.60
2022-09-28T23:27:08.168Z,8.60
2022-09-28T23:29:34.770Z,8.60
2022-09-28T23:32:01.822Z,8.60
2022-09-28T23:34:28.405Z,8.60
2022-09-28T23:36:55.000Z,8.70
2022-09-28T23:39:21.584Z,8.70
2022-09-28T23:41:48.149Z,8.60
2022-09-28T23:44:14.712Z,8.60
2022-09-28T23:46:41.330Z,8.60
2022-09-28T23:49:07.968Z,8.60
2022-09-28T23:51:34.555Z,8.60
2022-09-28T23:54:01.135Z,8.60
2022-09-28T23:56:27.708Z,8.60
2022-09-28T23:58:54.275Z,8.60
